Time;durP1;ratioP1;P1;durP2;ratioP2;P2;SDS_P1;SDS_P2;PMS_P1;PMS_P2;Temp;Humidity;BMP_temperature;BMP_pressure;BME280_temperature;BME280_humidity;BME280_pressure;Samples;Min_cycle;Max_cycle;Signal;HPM_P1;HPM_P2
2022/07/14 00:00:45;;;;;;;11.13;3.55;;;21.30;99.90;;;;;;2084917;28;20045;-72
2022/07/14 00:01:46;;;;;;;6.70;2.95;;;21.30;99.90;;;;;;2082073;28;20104;-71
2022/07/14 00:02:46;;;;;;;10.35;3.13;;;21.30;99.90;;;;;;2083791;28;20485;-71
2022/07/14 00:03:47;;;;;;;9.50;3.28;;;21.30;99.90;;;;;;2084813;28;20021;-71
2022/07/14 00:04:48;;;;;;;10.00;3.03;;;21.30;99.90;;;;;;2086289;28;20031;-71
2022/07/14 00:05:48;;;;;;;6.65;2.63;;;21.30;99.90;;;;;;2085921;28;20092;-71
2022/07/14 00:06:49;;;;;;;7.88;3.10;;;21.30;99.90;;;;;;2084040;28;20029;-71
2022/07/14 00:07:49;;;;;;;9.05;3.28;;;21.30;99.90;;;;;;2083835;28;20024;-71
2022/07/14 00:08:50;;;;;;;7.20;2.97;;;21.30;99.90;;;;;;2083750;28;20127;-71
2022/07/14 00:09:51;;;;;;;9.35;3.20;;;21.30;99.90;;;;;;2083904;28;20436;-71
2022/07/14 00:10:51;;;;;;;8.02;3.17;;;21.20;99.90;;;;;;2084308;28;20060;-71
2022/07/14 00:11:52;;;;;;;8.93;3.58;;;21.20;99.90;;;;;;2084542;28;20034;-71
2022/07/14 00:12:52;;;;;;;6.68;2.97;;;21.30;99.90;;;;;;2082884;28;20048;-72
2022/07/14 00:13:53;;;;;;;7.93;2.95;;;21.20;99.90;;;;;;2084888;28;20059;-72
2022/07/14 00:14:54;;;;;;;8.68;3.38;;;21.20;99.90;;;;;;2082065;28;20025;-72
2022/07/14 00:15:55;;;;;;;11.65;3.53;;;21.20;99.90;;;;;;2083496;28;20013;-72
2022/07/14 00:16:55;;;;;;;8.70;3.40;;;21.20;99.90;;;;;;2085086;28;20028;-72
2022/07/14 00:17:58;;;;;;;8.93;3.75;;;21.10;99.90;;;;;;2085596;28;20096;-72
2022/07/14 00:18:58;;;;;;;15.10;3.65;;;21.20;99.90;;;;;;2085189;28;20024;-72
2022/07/14 00:19:59;;;;;;;10.85;3.72;;;21.10;99.90;;;;;;2088067;28;20094;-72
2022/07/14 00:20:59;;;;;;;10.73;3.47;;;21.10;99.90;;;;;;2084665;28;20049;-72
2022/07/14 00:22:00;;;;;;;10.85;3.38;;;21.10;99.90;;;;;;2085444;28;20620;-72
2022/07/14 00:23:01;;;;;;;9.73;3.53;;;21.00;99.90;;;;;;2084191;28;20030;-72
2022/07/14 00:24:02;;;;;;;6.47;2.83;;;21.00;99.90;;;;;;2083279;28;20109;-72
2022/07/14 00:25:03;;;;;;;9.70;3.45;;;21.00;99.90;;;;;;2084180;28;20567;-72
2022/07/14 00:26:04;;;;;;;10.32;3.13;;;21.00;99.90;;;;;;2080327;28;20025;-72
2022/07/14 00:27:05;;;;;;;7.07;3.10;;;20.90;99.90;;;;;;2081451;28;20024;-72
2022/07/14 00:28:05;;;;;;;8.38;3.38;;;20.90;99.90;;;;;;2084429;28;20048;-72
2022/07/14 00:29:07;;;;;;;10.85;3.85;;;20.90;99.90;;;;;;2085235;28;20578;-72
2022/07/14 00:30:08;;;;;;;7.95;3.22;;;20.90;99.90;;;;;;2086395;28;20036;-72
2022/07/14 00:31:11;;;;;;;8.75;3.53;;;20.90;99.90;;;;;;2082869;28;20062;-72
2022/07/14 00:32:12;;;;;;;9.73;3.25;;;20.90;99.90;;;;;;2082461;28;20055;-72
2022/07/14 00:33:12;;;;;;;10.50;3.85;;;20.90;99.90;;;;;;2084424;28;20025;-72
2022/07/14 00:34:13;;;;;;;12.43;3.95;;;20.80;99.90;;;;;;2086295;28;20012;-71
2022/07/14 00:35:14;;;;;;;9.48;3.60;;;20.80;99.90;;;;;;2084074;28;20044;-71
2022/07/14 00:36:14;;;;;;;6.13;2.85;;;20.80;99.90;;;;;;2082079;28;20125;-71
2022/07/14 00:37:15;;;;;;;10.10;3.38;;;20.80;99.90;;;;;;2085928;28;20086;-71
2022/07/14 00:38:16;;;;;;;11.43;3.65;;;20.80;99.90;;;;;;2086567;28;20021;-71
2022/07/14 00:39:17;;;;;;;13.50;4.05;;;20.70;99.90;;;;;;2083211;28;20055;-71
2022/07/14 00:40:17;;;;;;;13.18;4.00;;;20.70;99.90;;;;;;2085092;28;20025;-72
2022/07/14 00:41:18;;;;;;;9.00;3.25;;;20.70;99.90;;;;;;2085309;28;20035;-72
2022/07/14 00:42:30;;;;;;;9.13;3.15;;;20.60;99.90;;;;;;2085074;28;20031;-72
2022/07/14 00:43:31;;;;;;;12.32;3.30;;;20.60;99.90;;;;;;2083493;28;20047;-71
2022/07/14 00:44:31;;;;;;;11.30;3.67;;;20.60;99.90;;;;;;2087851;28;20017;-71
2022/07/14 00:45:32;;;;;;;11.43;3.75;;;20.60;99.90;;;;;;2080662;28;20116;-71
2022/07/14 00:46:36;;;;;;;9.70;3.50;;;20.60;99.90;;;;;;2085851;28;20024;-71
2022/07/14 00:47:37;;;;;;;11.65;3.40;;;20.50;99.90;;;;;;2085147;28;20373;-71
2022/07/14 00:48:38;;;;;;;14.27;3.72;;;20.60;99.90;;;;;;2084242;28;20068;-71
2022/07/14 00:49:38;;;;;;;13.00;4.20;;;20.50;99.90;;;;;;2083952;28;20033;-71
2022/07/14 00:50:41;;;;;;;11.93;4.05;;;20.50;99.90;;;;;;2084873;28;20514;-71
2022/07/14 00:51:42;;;;;;;10.25;3.45;;;20.50;99.90;;;;;;2085377;28;20024;-71
2022/07/14 00:52:44;;;;;;;10.88;4.00;;;20.50;99.90;;;;;;2085137;28;20499;-71
2022/07/14 00:53:51;;;;;;;9.88;3.03;;;20.50;99.90;;;;;;2085425;28;20078;-71
2022/07/14 00:54:52;;;;;;;10.65;3.60;;;20.50;99.90;;;;;;2083701;28;20040;-71
2022/07/14 00:55:53;;;;;;;10.65;3.40;;;20.50;99.90;;;;;;2082821;28;20026;-71
2022/07/14 00:56:53;;;;;;;7.95;2.90;;;20.50;99.90;;;;;;2085863;28;20027;-71
2022/07/14 00:57:54;;;;;;;17.35;4.50;;;20.40;99.90;;;;;;2085607;28;20385;-71
2022/07/14 00:58:55;;;;;;;11.57;3.83;;;20.40;99.90;;;;;;2084571;28;20083;-71
2022/07/14 00:59:56;;;;;;;11.00;3.58;;;20.40;99.90;;;;;;2086915;28;20033;-71
2022/07/14 01:00:57;;;;;;;11.65;3.70;;;20.40;99.90;;;;;;2083350;28;20021;-72
2022/07/14 01:01:58;;;;;;;10.32;3.45;;;20.40;99.90;;;;;;2083351;28;20017;-72
2022/07/14 01:02:59;;;;;;;14.02;4.03;;;20.40;99.90;;;;;;2082720;28;20049;-72
2022/07/14 01:03:59;;;;;;;13.93;4.50;;;20.40;99.90;;;;;;2087479;28;20027;-72
2022/07/14 01:05:00;;;;;;;12.45;3.95;;;20.30;99.90;;;;;;2082253;28;20029;-72
2022/07/14 01:06:01;;;;;;;14.52;3.97;;;20.30;99.90;;;;;;2080943;28;20056;-71
2022/07/14 01:07:01;;;;;;;12.07;3.70;;;20.30;99.90;;;;;;2084170;28;20032;-71
2022/07/14 01:08:02;;;;;;;13.70;4.38;;;20.30;99.90;;;;;;2085195;28;20100;-71
2022/07/14 01:09:04;;;;;;;9.48;3.63;;;20.20;99.90;;;;;;2085422;28;20018;-71
2022/07/14 01:10:06;;;;;;;11.43;3.30;;;20.20;99.90;;;;;;2086149;28;20020;-71
2022/07/14 01:11:08;;;;;;;12.13;3.97;;;20.20;99.90;;;;;;2087051;28;20017;-71
2022/07/14 01:12:09;;;;;;;8.98;3.45;;;20.20;99.90;;;;;;2085212;28;20128;-71
2022/07/14 01:13:10;;;;;;;9.48;2.83;;;20.20;99.90;;;;;;2083444;28;20420;-71
2022/07/14 01:14:10;;;;;;;15.60;3.78;;;20.20;99.90;;;;;;2086309;28;20033;-71
2022/07/14 01:15:11;;;;;;;9.35;3.63;;;20.10;99.90;;;;;;2081526;28;20041;-71
2022/07/14 01:16:13;;;;;;;14.27;4.35;;;20.20;99.90;;;;;;2088758;28;20385;-71
2022/07/14 01:17:14;;;;;;;11.48;3.50;;;20.10;99.90;;;;;;2083162;28;20020;-71
2022/07/14 01:18:14;;;;;;;12.52;4.15;;;20.10;99.90;;;;;;2082446;28;20033;-71
2022/07/14 01:19:15;;;;;;;13.02;3.58;;;20.10;99.90;;;;;;2082982;28;20445;-71
2022/07/14 01:20:16;;;;;;;9.10;3.20;;;20.10;99.90;;;;;;2085689;28;20017;-71
2022/07/14 01:21:17;;;;;;;14.32;3.35;;;20.10;99.90;;;;;;2085808;28;20082;-71
2022/07/14 01:22:18;;;;;;;19.02;5.03;;;20.10;99.90;;;;;;2083034;28;20562;-71
2022/07/14 01:23:19;;;;;;;8.30;3.25;;;20.00;99.90;;;;;;2088431;28;20035;-71
2022/07/14 01:24:20;;;;;;;7.70;3.10;;;20.10;99.90;;;;;;2087457;28;20013;-71
2022/07/14 01:25:21;;;;;;;13.38;3.30;;;20.00;99.90;;;;;;2083651;28;20090;-71
2022/07/14 01:26:22;;;;;;;9.13;3.17;;;20.10;99.90;;;;;;2085743;28;20025;-71
2022/07/14 01:27:22;;;;;;;12.43;4.03;;;20.00;99.90;;;;;;2085837;28;20092;-71
2022/07/14 01:28:23;;;;;;;13.80;3.83;;;20.00;99.90;;;;;;2083584;28;20087;-72
2022/07/14 01:29:24;;;;;;;7.78;3.30;;;20.00;99.90;;;;;;2084267;28;20037;-72
2022/07/14 01:30:25;;;;;;;8.48;3.10;;;20.00;99.90;;;;;;2084547;28;20048;-72
2022/07/14 01:31:25;;;;;;;13.98;3.83;;;20.00;99.90;;;;;;2083532;28;20104;-72
2022/07/14 01:32:26;;;;;;;13.65;3.85;;;20.00;99.90;;;;;;2086095;28;20437;-71
2022/07/14 01:33:26;;;;;;;11.70;3.80;;;20.00;99.90;;;;;;2082478;28;20489;-71
2022/07/14 01:34:33;;;;;;;10.77;3.75;;;19.90;99.90;;;;;;2082815;28;20782;-71
2022/07/14 01:35:33;;;;;;;12.52;3.67;;;19.90;99.90;;;;;;2079273;28;20029;-71
2022/07/14 01:36:34;;;;;;;14.48;4.15;;;19.90;99.90;;;;;;2084980;28;20025;-71
2022/07/14 01:37:35;;;;;;;11.10;3.63;;;19.90;99.90;;;;;;2084012;28;20020;-71
2022/07/14 01:38:35;;;;;;;12.55;3.63;;;19.90;99.90;;;;;;2084949;28;20025;-71
2022/07/14 01:39:36;;;;;;;13.15;3.42;;;19.80;99.90;;;;;;2089617;28;20032;-71
2022/07/14 01:40:37;;;;;;;11.07;3.47;;;19.80;99.90;;;;;;2084259;28;20053;-71
2022/07/14 01:41:38;;;;;;;10.77;3.70;;;19.80;99.90;;;;;;2086014;28;20021;-71
2022/07/14 01:42:38;;;;;;;15.70;4.05;;;19.80;99.90;;;;;;2085887;28;20056;-71
2022/07/14 01:43:39;;;;;;;9.50;3.10;;;19.80;99.90;;;;;;2082503;28;20036;-71
2022/07/14 01:44:39;;;;;;;15.13;3.92;;;19.80;99.90;;;;;;2083177;28;20025;-72
2022/07/14 01:45:40;;;;;;;11.35;3.47;;;19.80;99.90;;;;;;2080749;28;20039;-72
2022/07/14 01:46:41;;;;;;;12.68;3.78;;;19.70;99.90;;;;;;2085603;28;20076;-72
2022/07/14 01:47:41;;;;;;;14.57;3.42;;;19.80;99.90;;;;;;2089532;28;20361;-72
2022/07/14 01:48:42;;;;;;;13.40;3.85;;;19.70;99.90;;;;;;2083942;28;20545;-72
2022/07/14 01:49:42;;;;;;;7.60;2.97;;;19.80;99.90;;;;;;2082656;28;20029;-72
2022/07/14 01:50:43;;;;;;;8.70;3.60;;;19.70;99.90;;;;;;2080721;28;20022;-72
2022/07/14 01:51:44;;;;;;;10.15;3.35;;;19.70;99.90;;;;;;2085377;28;20114;-72
2022/07/14 01:52:45;;;;;;;11.68;3.72;;;19.80;99.90;;;;;;2084599;28;20484;-72
2022/07/14 01:53:45;;;;;;;12.50;3.67;;;19.70;99.90;;;;;;2084857;28;20465;-72
2022/07/14 01:54:46;;;;;;;7.50;2.92;;;19.70;99.90;;;;;;2082539;28;20092;-72
2022/07/14 01:55:47;;;;;;;11.18;2.90;;;19.70;99.90;;;;;;2083402;28;20108;-72
2022/07/14 01:56:47;;;;;;;10.75;3.33;;;19.70;99.90;;;;;;2086315;28;20025;-72
2022/07/14 01:57:48;;;;;;;10.13;3.10;;;19.70;99.90;;;;;;2085587;28;20025;-72
2022/07/14 01:58:49;;;;;;;10.90;3.70;;;19.70;99.90;;;;;;2084743;28;20029;-72
2022/07/14 01:59:49;;;;;;;12.48;3.00;;;19.70;99.90;;;;;;2086759;28;20758;-72
2022/07/14 02:02:13;;;;;;;7.68;2.70;;;19.70;99.90;;;;;;2082446;28;20100;-72
2022/07/14 02:03:13;;;;;;;11.00;3.42;;;19.70;99.90;;;;;;2083048;28;20484;-72
2022/07/14 02:04:16;;;;;;;13.05;4.03;;;19.70;99.90;;;;;;2081804;28;20431;-72
2022/07/14 02:05:17;;;;;;;17.60;3.90;;;19.70;99.90;;;;;;2083049;28;20017;-72
2022/07/14 02:06:18;;;;;;;7.50;3.78;;;19.70;99.90;;;;;;2082353;28;20013;-72
2022/07/14 02:07:19;;;;;;;13.40;4.15;;;19.60;99.90;;;;;;2085427;28;20026;-72
2022/07/14 02:08:19;;;;;;;11.55;4.35;;;19.70;99.90;;;;;;2084444;28;20021;-72
2022/07/14 02:09:21;;;;;;;9.52;3.60;;;19.60;99.90;;;;;;2082174;28;20022;-72
2022/07/14 02:12:12;;;;;;;10.80;3.40;;;19.60;99.90;;;;;;2098109;28;20059;-72
2022/07/14 02:13:13;;;;;;;9.57;3.63;;;19.60;99.90;;;;;;2092733;28;20115;-72
2022/07/14 02:14:13;;;;;;;13.88;3.30;;;19.50;99.90;;;;;;2093081;28;20032;-72
2022/07/14 02:15:14;;;;;;;12.63;3.70;;;19.60;99.90;;;;;;2089087;28;20024;-72
2022/07/14 02:16:15;;;;;;;15.07;4.07;;;19.50;99.90;;;;;;2090753;28;20216;-72
2022/07/14 02:17:15;;;;;;;11.23;3.90;;;19.60;99.90;;;;;;2094952;28;20028;-72
2022/07/14 02:18:16;;;;;;;11.82;3.63;;;19.50;99.90;;;;;;2082428;28;20055;-72
2022/07/14 02:19:17;;;;;;;10.75;4.15;;;19.50;99.90;;;;;;2083886;28;20400;-72
2022/07/14 02:20:17;;;;;;;11.00;3.05;;;19.50;99.90;;;;;;2083315;28;20083;-72
2022/07/14 02:21:18;;;;;;;12.93;3.50;;;19.50;99.90;;;;;;2080823;28;20025;-72
2022/07/14 02:22:18;;;;;;;15.65;4.15;;;19.50;99.90;;;;;;2072615;28;20050;-72
2022/07/14 02:23:19;;;;;;;9.02;3.30;;;19.50;99.90;;;;;;2081367;28;20033;-71
2022/07/14 02:24:21;;;;;;;10.30;3.90;;;19.50;99.90;;;;;;2085587;28;20017;-71
2022/07/14 02:25:22;;;;;;;9.98;3.78;;;19.50;99.90;;;;;;2082520;28;20025;-71
2022/07/14 02:26:23;;;;;;;15.02;4.00;;;19.50;99.90;;;;;;2085500;28;20025;-71
2022/07/14 02:27:23;;;;;;;12.75;3.75;;;19.40;99.90;;;;;;2083338;28;20103;-72
2022/07/14 02:28:24;;;;;;;9.77;3.28;;;19.40;99.90;;;;;;2085723;28;20098;-72
2022/07/14 02:29:25;;;;;;;12.90;3.67;;;19.40;99.90;;;;;;2083516;28;20049;-72
2022/07/14 02:30:25;;;;;;;14.90;3.92;;;19.40;99.90;;;;;;2080389;28;20503;-72
2022/07/14 02:31:26;;;;;;;14.63;4.18;;;19.40;99.90;;;;;;2084942;28;20029;-72
2022/07/14 02:32:29;;;;;;;13.55;4.28;;;19.40;99.90;;;;;;2085310;28;20553;-72
2022/07/14 02:33:29;;;;;;;19.15;4.72;;;19.40;99.90;;;;;;2083252;28;20145;-71
2022/07/14 02:34:30;;;;;;;10.48;3.22;;;19.40;99.90;;;;;;2082107;28;20038;-71
2022/07/14 02:35:31;;;;;;;9.10;3.45;;;19.40;99.90;;;;;;2086898;28;20052;-71
2022/07/14 02:36:32;;;;;;;12.23;3.50;;;19.40;99.90;;;;;;2085740;28;20539;-71
2022/07/14 02:37:32;;;;;;;11.25;3.90;;;19.40;99.90;;;;;;2082789;28;20492;-71
2022/07/14 02:38:33;;;;;;;9.63;3.72;;;19.40;99.90;;;;;;2085706;28;20418;-71
2022/07/14 02:39:34;;;;;;;12.70;3.33;;;19.30;99.90;;;;;;2086033;28;20860;-71
2022/07/14 02:40:34;;;;;;;11.30;3.35;;;19.30;99.90;;;;;;2084735;28;20109;-71
2022/07/14 02:41:35;;;;;;;19.40;4.35;;;19.30;99.90;;;;;;2082146;28;20102;-71
2022/07/14 02:42:36;;;;;;;15.13;4.40;;;19.30;99.90;;;;;;2081872;28;20021;-71
2022/07/14 02:43:37;;;;;;;13.63;4.47;;;19.30;99.90;;;;;;2084971;28;20029;-71
2022/07/14 02:44:37;;;;;;;15.90;3.90;;;19.30;99.90;;;;;;2082011;28;20070;-71
2022/07/14 02:45:38;;;;;;;13.95;4.13;;;19.30;99.90;;;;;;2084689;28;20598;-71
2022/07/14 02:46:38;;;;;;;14.00;4.38;;;19.30;99.90;;;;;;2088348;28;20035;-71
2022/07/14 02:47:39;;;;;;;14.00;4.72;;;19.30;99.90;;;;;;2087950;28;20028;-71
2022/07/14 02:48:40;;;;;;;14.48;4.18;;;19.20;99.90;;;;;;2086623;28;20025;-71
2022/07/14 02:49:40;;;;;;;14.43;4.05;;;19.20;99.90;;;;;;2084553;28;20040;-71
2022/07/14 02:50:41;;;;;;;17.25;4.78;;;19.20;99.90;;;;;;2086013;28;20531;-71
2022/07/14 02:51:42;;;;;;;13.40;3.78;;;19.20;99.90;;;;;;2086895;28;20025;-71
2022/07/14 02:52:43;;;;;;;21.02;5.20;;;19.20;99.90;;;;;;2084926;28;20031;-71
2022/07/14 02:53:43;;;;;;;10.77;3.72;;;19.20;99.90;;;;;;2086341;28;20033;-71
2022/07/14 02:54:44;;;;;;;14.82;4.03;;;19.20;99.90;;;;;;2086993;28;20060;-71
2022/07/14 02:55:44;;;;;;;11.93;3.70;;;19.10;99.90;;;;;;2086700;28;20389;-71
2022/07/14 02:56:45;;;;;;;12.00;3.60;;;19.10;99.90;;;;;;2084845;28;20079;-71
2022/07/14 02:57:46;;;;;;;14.13;4.38;;;19.10;99.90;;;;;;2084591;28;20025;-71
2022/07/14 02:58:46;;;;;;;17.23;3.90;;;19.10;99.90;;;;;;2087194;28;20439;-71
2022/07/14 02:59:47;;;;;;;15.25;4.10;;;19.10;99.90;;;;;;2084079;28;20484;-72
2022/07/14 03:00:48;;;;;;;10.05;3.72;;;19.10;99.90;;;;;;2082896;28;20009;-72
2022/07/14 03:01:48;;;;;;;16.85;4.50;;;19.10;99.90;;;;;;2085630;28;20017;-72
2022/07/14 03:02:49;;;;;;;13.80;4.25;;;19.00;99.90;;;;;;2085808;28;20104;-72
2022/07/14 03:03:50;;;;;;;16.05;3.80;;;19.00;99.90;;;;;;2084494;28;20037;-71
2022/07/14 03:04:50;;;;;;;14.38;4.15;;;19.10;99.90;;;;;;2083827;28;20038;-71
2022/07/14 03:05:51;;;;;;;14.45;4.63;;;19.00;99.90;;;;;;2088105;28;20385;-71
2022/07/14 03:06:52;;;;;;;14.02;4.03;;;19.00;99.90;;;;;;2086390;28;20577;-71
2022/07/14 03:07:53;;;;;;;14.65;4.47;;;19.10;99.90;;;;;;2084142;28;20060;-71
2022/07/14 03:08:53;;;;;;;13.30;4.22;;;19.00;99.90;;;;;;2083010;28;20057;-71
2022/07/14 03:09:54;;;;;;;14.07;3.90;;;19.00;99.90;;;;;;2083832;28;20097;-71
2022/07/14 03:10:54;;;;;;;14.40;3.72;;;19.10;99.90;;;;;;2083573;28;20100;-71
2022/07/14 03:11:55;;;;;;;22.40;4.70;;;19.00;99.90;;;;;;2086186;28;20052;-71
2022/07/14 03:12:56;;;;;;;16.17;4.90;;;19.00;99.90;;;;;;2088327;28;20055;-71
2022/07/14 03:13:56;;;;;;;14.13;4.05;;;19.00;99.90;;;;;;2085800;28;20480;-71
2022/07/14 03:14:57;;;;;;;13.95;4.28;;;19.00;99.90;;;;;;2082397;28;20029;-71
2022/07/14 03:15:59;;;;;;;13.65;4.03;;;19.00;99.90;;;;;;2085322;28;20017;-71
2022/07/14 03:16:59;;;;;;;13.40;3.88;;;19.00;99.90;;;;;;2086489;28;20025;-71
2022/07/14 03:18:01;;;;;;;14.23;4.13;;;19.00;99.90;;;;;;2088171;28;20020;-72
2022/07/14 03:19:01;;;;;;;14.18;4.85;;;19.00;99.90;;;;;;2085202;28;20017;-71
2022/07/14 03:20:02;;;;;;;18.55;4.60;;;18.90;99.90;;;;;;2086800;28;20060;-71
2022/07/14 03:21:08;;;;;;;12.90;3.78;;;18.90;99.90;;;;;;2086395;28;20457;-71
2022/07/14 03:22:08;;;;;;;14.73;5.13;;;18.90;99.90;;;;;;2085853;28;20081;-71
2022/07/14 03:23:09;;;;;;;13.07;4.15;;;18.90;99.90;;;;;;2085135;28;20021;-71
2022/07/14 03:24:10;;;;;;;16.23;4.85;;;18.90;99.90;;;;;;2084867;28;20044;-71
2022/07/14 03:25:10;;;;;;;16.40;4.97;;;18.90;99.90;;;;;;2084421;28;20029;-71
2022/07/14 03:26:11;;;;;;;11.07;3.85;;;18.80;99.90;;;;;;2086285;28;20023;-71
2022/07/14 03:27:12;;;;;;;17.80;3.85;;;18.80;99.90;;;;;;2085793;28;20381;-71
2022/07/14 03:28:13;;;;;;;15.60;4.25;;;18.80;99.90;;;;;;2086718;28;20020;-71
2022/07/14 03:29:14;;;;;;;13.77;4.05;;;18.80;99.90;;;;;;2083637;28;20112;-72
2022/07/14 03:30:15;;;;;;;16.25;4.45;;;18.80;99.90;;;;;;2084392;28;20505;-72
2022/07/14 03:31:15;;;;;;;16.48;4.30;;;18.80;99.90;;;;;;2085561;28;20032;-71
2022/07/14 03:32:16;;;;;;;12.68;3.50;;;18.80;99.90;;;;;;2086153;28;20052;-71
2022/07/14 03:33:16;;;;;;;13.05;4.13;;;18.80;99.90;;;;;;2089494;28;20025;-71
2022/07/14 03:34:17;;;;;;;14.38;4.07;;;18.80;99.90;;;;;;2085405;28;20025;-71
2022/07/14 03:35:18;;;;;;;16.60;4.70;;;18.80;99.90;;;;;;2084583;28;20032;-71
2022/07/14 03:36:20;;;;;;;16.40;4.63;;;18.80;99.90;;;;;;2086712;28;20025;-71
2022/07/14 03:37:21;;;;;;;21.52;4.22;;;18.80;99.90;;;;;;2087060;28;20025;-71
2022/07/14 03:38:21;;;;;;;17.13;4.60;;;18.80;99.90;;;;;;2088098;28;20105;-71
2022/07/14 03:39:22;;;;;;;12.48;3.40;;;18.80;99.90;;;;;;2084994;28;20049;-71
2022/07/14 03:40:23;;;;;;;11.85;3.92;;;18.80;99.90;;;;;;2084882;28;20036;-71
2022/07/14 03:41:23;;;;;;;11.18;3.88;;;18.80;99.90;;;;;;2092457;28;20432;-71
2022/07/14 03:42:24;;;;;;;13.73;4.13;;;18.80;99.90;;;;;;2086880;28;20539;-71
2022/07/14 03:43:24;;;;;;;13.85;4.45;;;18.80;99.90;;;;;;2085960;28;20021;-71
2022/07/14 03:44:26;;;;;;;13.77;4.30;;;18.80;99.90;;;;;;2086217;28;20392;-71
2022/07/14 03:45:26;;;;;;;18.70;5.07;;;18.80;99.90;;;;;;2083419;28;20017;-71
2022/07/14 03:46:27;;;;;;;16.02;4.10;;;18.80;99.90;;;;;;2087958;28;20100;-71
2022/07/14 03:47:27;;;;;;;19.05;5.70;;;18.80;99.90;;;;;;2086659;28;20021;-71
2022/07/14 03:48:28;;;;;;;14.57;4.22;;;18.80;99.90;;;;;;2086459;28;20362;-71
2022/07/14 03:49:29;;;;;;;15.32;5.20;;;18.80;99.90;;;;;;2088023;28;20024;-71
2022/07/14 03:50:30;;;;;;;17.75;4.43;;;18.80;99.90;;;;;;2086992;28;20029;-72
2022/07/14 03:51:31;;;;;;;14.95;5.03;;;18.70;99.90;;;;;;2086501;28;20020;-71
2022/07/14 03:52:32;;;;;;;13.98;4.13;;;18.70;99.90;;;;;;2086805;28;20021;-71
2022/07/14 03:53:32;;;;;;;13.10;4.40;;;18.70;99.90;;;;;;2083684;28;20044;-71
2022/07/14 03:54:33;;;;;;;12.25;3.67;;;18.70;99.90;;;;;;2086099;28;20432;-71
2022/07/14 03:55:33;;;;;;;13.85;4.45;;;18.70;99.90;;;;;;2083907;28;20021;-71
2022/07/14 03:56:36;;;;;;;16.80;4.55;;;18.70;99.90;;;;;;2083004;28;20033;-71
2022/07/14 03:57:37;;;;;;;17.52;4.45;;;18.70;99.90;;;;;;2085311;28;20021;-71
2022/07/14 03:58:38;;;;;;;16.98;4.63;;;18.70;99.90;;;;;;2084344;28;20034;-71
2022/07/14 03:59:41;;;;;;;19.98;5.03;;;18.70;99.90;;;;;;2085820;28;20025;-71
2022/07/14 04:00:42;;;;;;;11.50;3.97;;;18.60;99.90;;;;;;2086402;28;20056;-71
2022/07/14 04:01:43;;;;;;;18.77;4.38;;;18.60;99.90;;;;;;2083492;28;20025;-71
2022/07/14 04:02:43;;;;;;;16.55;4.53;;;18.60;99.90;;;;;;2088832;28;20895;-71
2022/07/14 04:03:44;;;;;;;12.25;4.15;;;18.60;99.90;;;;;;2086899;28;20480;-71
2022/07/14 04:04:44;;;;;;;15.50;4.75;;;18.50;99.90;;;;;;2084433;28;20528;-71
2022/07/14 04:05:46;;;;;;;14.55;4.35;;;18.60;99.90;;;;;;2082584;28;20063;-71
2022/07/14 04:06:46;;;;;;;18.00;4.55;;;18.60;99.90;;;;;;2085266;28;20092;-71
2022/07/14 04:07:47;;;;;;;13.52;4.25;;;18.60;99.90;;;;;;2083764;28;20030;-71
2022/07/14 04:08:48;;;;;;;15.13;5.13;;;18.50;99.90;;;;;;2085819;28;20017;-72
2022/07/14 04:09:49;;;;;;;18.88;4.47;;;18.50;99.90;;;;;;2085313;28;20620;-71
2022/07/14 04:10:50;;;;;;;10.30;3.72;;;18.50;99.90;;;;;;2084670;28;20010;-71
2022/07/14 04:11:51;;;;;;;14.60;4.18;;;18.50;99.90;;;;;;2083722;28;20512;-71
2022/07/14 04:12:51;;;;;;;14.63;4.28;;;18.50;99.90;;;;;;2084410;28;20028;-71
2022/07/14 04:13:52;;;;;;;13.55;3.97;;;18.50;99.90;;;;;;2085781;28;20052;-71
2022/07/14 04:14:53;;;;;;;15.07;4.68;;;18.50;99.90;;;;;;2085558;28;20031;-72
2022/07/14 04:15:53;;;;;;;17.00;4.47;;;18.50;99.90;;;;;;2082023;28;20021;-72
2022/07/14 04:16:54;;;;;;;18.15;4.38;;;18.50;99.90;;;;;;2085128;28;20025;-72
2022/07/14 04:17:55;;;;;;;13.45;4.60;;;18.50;99.90;;;;;;2085784;28;20040;-72
2022/07/14 04:18:56;;;;;;;14.82;4.88;;;18.50;99.90;;;;;;2087210;28;20017;-71
2022/07/14 04:19:56;;;;;;;12.32;3.70;;;18.50;99.90;;;;;;2083932;28;20071;-71
2022/07/14 04:20:57;;;;;;;18.58;4.95;;;18.40;99.90;;;;;;2084313;28;20079;-71
2022/07/14 04:21:57;;;;;;;14.07;5.10;;;18.40;99.90;;;;;;2087060;28;20017;-72
2022/07/14 04:22:58;;;;;;;15.32;4.70;;;18.40;99.90;;;;;;2086484;28;20099;-72
2022/07/14 04:23:59;;;;;;;14.60;4.10;;;18.40;99.90;;;;;;2084870;28;20017;-72
2022/07/14 04:25:00;;;;;;;15.90;4.68;;;18.40;99.90;;;;;;2085709;28;20053;-72
2022/07/14 04:26:02;;;;;;;13.65;4.38;;;18.40;99.90;;;;;;2084415;28;20203;-72
2022/07/14 04:27:02;;;;;;;17.55;4.25;;;18.40;99.90;;;;;;2085623;28;20030;-72
2022/07/14 04:28:03;;;;;;;13.23;4.40;;;18.40;99.90;;;;;;2085153;28;20052;-72
2022/07/14 04:29:04;;;;;;;17.35;4.32;;;18.40;99.90;;;;;;2082298;28;20477;-72
2022/07/14 04:30:07;;;;;;;15.70;4.68;;;18.40;99.90;;;;;;2086982;28;20037;-72
2022/07/14 04:31:08;;;;;;;16.33;4.80;;;18.40;99.90;;;;;;2086633;28;20040;-72
2022/07/14 04:32:10;;;;;;;15.32;5.32;;;18.40;99.90;;;;;;2084107;28;20033;-72
2022/07/14 04:33:11;;;;;;;15.85;5.18;;;18.40;99.90;;;;;;2084738;28;20119;-72
2022/07/14 04:34:11;;;;;;;16.17;5.18;;;18.40;99.90;;;;;;2086556;28;20024;-72
2022/07/14 04:35:12;;;;;;;18.35;4.68;;;18.40;99.90;;;;;;2082002;28;20108;-72
2022/07/14 04:36:13;;;;;;;12.50;4.18;;;18.40;99.90;;;;;;2082636;28;20052;-72
2022/07/14 04:37:14;;;;;;;17.02;4.80;;;18.40;99.90;;;;;;2082597;28;20079;-72
2022/07/14 04:38:14;;;;;;;14.88;4.85;;;18.40;99.90;;;;;;2089047;28;20025;-72
2022/07/14 04:39:15;;;;;;;11.82;4.05;;;18.40;99.90;;;;;;2085828;28;20104;-72
2022/07/14 04:40:16;;;;;;;14.13;4.20;;;18.40;99.90;;;;;;2081791;28;20132;-72
2022/07/14 04:41:16;;;;;;;12.95;3.65;;;18.40;99.90;;;;;;2084471;28;20021;-72
2022/07/14 04:42:17;;;;;;;11.43;3.85;;;18.40;99.90;;;;;;2084091;28;20048;-72
2022/07/14 04:43:18;;;;;;;16.85;4.22;;;18.40;99.90;;;;;;2086305;28;20029;-72
2022/07/14 04:44:19;;;;;;;17.13;4.88;;;18.40;99.90;;;;;;2083653;28;20116;-73
2022/07/14 04:45:22;;;;;;;17.98;4.60;;;18.40;99.90;;;;;;2085681;28;20476;-72
2022/07/14 04:46:23;;;;;;;16.60;4.75;;;18.40;99.90;;;;;;2086753;28;20736;-72
2022/07/14 04:47:23;;;;;;;19.55;4.40;;;18.40;99.90;;;;;;2084912;28;20206;-72
2022/07/14 04:48:24;;;;;;;20.05;4.75;;;18.40;99.90;;;;;;2084547;28;20105;-72
2022/07/14 04:52:04;;;;;;;13.48;4.35;;;18.40;99.90;;;;;;2085557;28;20425;-72
2022/07/14 04:53:04;;;;;;;17.08;4.32;;;18.30;99.90;;;;;;2088023;28;20040;-72
2022/07/14 04:54:05;;;;;;;15.80;4.72;;;18.30;99.90;;;;;;2085565;28;20021;-72
2022/07/14 04:55:06;;;;;;;14.68;4.05;;;18.30;99.90;;;;;;2083557;28;20036;-72
2022/07/14 04:56:07;;;;;;;16.73;4.78;;;18.30;99.90;;;;;;2083116;28;20044;-72
2022/07/14 04:57:07;;;;;;;19.85;5.28;;;18.30;99.90;;;;;;2085066;28;20047;-72
2022/07/14 04:58:08;;;;;;;18.05;4.60;;;18.40;99.90;;;;;;2084770;28;21267;-72
2022/07/14 04:59:09;;;;;;;18.15;4.57;;;18.40;99.90;;;;;;2086826;28;20029;-72
2022/07/14 05:00:11;;;;;;;18.38;4.47;;;18.40;99.90;;;;;;2084794;28;20449;-72
2022/07/14 05:01:12;;;;;;;15.57;4.88;;;18.40;99.90;;;;;;2083287;28;20037;-72
2022/07/14 05:02:13;;;;;;;15.48;4.10;;;18.40;99.90;;;;;;2087245;28;20083;-72
2022/07/14 05:03:14;;;;;;;14.90;4.15;;;18.40;99.90;;;;;;2084702;28;20024;-72
2022/07/14 05:04:15;;;;;;;21.13;4.50;;;18.40;99.90;;;;;;2081816;28;20025;-72
2022/07/14 05:05:16;;;;;;;14.45;4.47;;;18.40;99.90;;;;;;2080304;28;20570;-72
2022/07/14 05:06:18;;;;;;;14.27;4.70;;;18.40;99.90;;;;;;2082569;28;20048;-72
2022/07/14 05:07:18;;;;;;;16.55;4.60;;;18.40;99.90;;;;;;2083876;28;20029;-72
2022/07/14 05:08:19;;;;;;;20.65;5.18;;;18.40;99.90;;;;;;2085986;28;20025;-72
2022/07/14 05:09:20;;;;;;;16.17;4.40;;;18.50;99.90;;;;;;2084823;28;20102;-72
2022/07/14 05:10:20;;;;;;;11.90;4.38;;;18.50;99.90;;;;;;2085730;28;20097;-72
2022/07/14 05:11:21;;;;;;;11.70;4.30;;;18.50;99.90;;;;;;2087574;28;20040;-72
2022/07/14 05:12:21;;;;;;;16.02;4.78;;;18.60;99.90;;;;;;2086569;28;20024;-72
2022/07/14 05:13:22;;;;;;;16.88;4.80;;;18.60;99.90;;;;;;2085034;28;20453;-72
2022/07/14 05:14:23;;;;;;;15.00;4.93;;;18.70;99.90;;;;;;2081940;28;20018;-72
2022/07/14 05:15:23;;;;;;;15.90;4.80;;;18.70;99.90;;;;;;2080626;28;20056;-72
2022/07/14 05:16:24;;;;;;;14.48;4.50;;;18.80;99.90;;;;;;2085619;28;20029;-72
2022/07/14 05:17:25;;;;;;;13.60;4.32;;;18.80;99.90;;;;;;2083794;28;20484;-72
2022/07/14 05:18:25;;;;;;;15.40;4.25;;;18.80;99.90;;;;;;2086150;28;20012;-72
2022/07/14 05:19:26;;;;;;;16.00;4.53;;;18.90;99.90;;;;;;2084628;28;20109;-72